createdAt,value
2019-02-26T00:00:02.843Z,1027.56
2019-02-26T00:01:02.826Z,1027.54
2019-02-26T00:02:02.823Z,1027.56
2019-02-26T00:03:04.627Z,1027.55
2019-02-26T00:04:02.765Z,1027.52
2019-02-26T00:05:03.459Z,1027.54
2019-02-26T00:06:03.723Z,1027.52
2019-02-26T00:07:02.713Z,1027.5
2019-02-26T00:08:02.777Z,1027.47
2019-02-26T00:09:03.765Z,1027.51
2019-02-26T00:10:04.592Z,1027.44
2019-02-26T00:11:03.633Z,1027.47
2019-02-26T00:12:02.614Z,1027.44
2019-02-26T00:13:02.595Z,1027.41
2019-02-26T00:14:02.572Z,1027.39
2019-02-26T00:15:02.697Z,1027.38
2019-02-26T00:16:03.824Z,1027.4
2019-02-26T00:17:05.967Z,1027.42
2019-02-26T00:18:02.496Z,1027.38
2019-02-26T00:19:03.120Z,1027.38
2019-02-26T00:20:05.426Z,1027.45
2019-02-26T00:21:03.249Z,1027.43
2019-02-26T00:22:02.421Z,1027.41
2019-02-26T00:23:04.329Z,1027.41
2019-02-26T00:24:02.385Z,1027.34
2019-02-26T00:25:03.780Z,1027.37
2019-02-26T00:26:02.344Z,1027.31
2019-02-26T00:27:03.629Z,1027.34
2019-02-26T00:28:02.304Z,1027.31
2019-02-26T00:29:03.867Z,1027.29
2019-02-26T00:30:02.267Z,1027.27
2019-02-26T00:31:03.773Z,1027.27
2019-02-26T00:32:02.234Z,1027.26
2019-02-26T00:33:03.321Z,1027.2
2019-02-26T00:34:02.194Z,1027.2
2019-02-26T00:35:04.059Z,1027.17
2019-02-26T00:36:02.155Z,1027.15
2019-02-26T00:37:03.858Z,1027.2
2019-02-26T00:38:02.115Z,1027.2
2019-02-26T00:39:03.299Z,1027.17
2019-02-26T00:40:02.076Z,1027.2
2019-02-26T00:41:03.718Z,1027.18
2019-02-26T00:42:02.632Z,1027.17
2019-02-26T00:43:02.673Z,1027.17
2019-02-26T00:44:02.531Z,1027.18
2019-02-26T00:45:03.270Z,1027.17
2019-02-26T00:46:03.125Z,1027.16
2019-02-26T00:47:04.305Z,1027.14
2019-02-26T00:48:01.922Z,1027.13
2019-02-26T00:49:03.103Z,1027.1
2019-02-26T00:50:01.883Z,1027.12
2019-02-26T00:51:03.105Z,1027.1
2019-02-26T00:52:03.829Z,1027.1
2019-02-26T00:53:03.796Z,1027.09
2019-02-26T00:54:02.312Z,1027.11
2019-02-26T00:55:02.916Z,1027.11
2019-02-26T00:56:03.218Z,1027.08
2019-02-26T00:57:03.374Z,1027.11
2019-02-26T00:58:03.278Z,1027.11
2019-02-26T00:59:01.722Z,1027.08
2019-02-26T01:00:03.320Z,1027.07
2019-02-26T01:01:01.678Z,1027.03
2019-02-26T01:02:01.653Z,1027.03
2019-02-26T01:03:03.476Z,1026.98
2019-02-26T01:04:01.614Z,1027.03
2019-02-26T01:05:01.599Z,1027.03
2019-02-26T01:06:03.272Z,1027.03
2019-02-26T01:07:03.161Z,1027.01
2019-02-26T01:08:01.539Z,1026.98
2019-02-26T01:09:03.628Z,1026.97
2019-02-26T01:10:01.498Z,1026.95
2019-02-26T01:11:02.128Z,1026.92
2019-02-26T01:12:01.458Z,1026.95
2019-02-26T01:13:03.054Z,1026.93
2019-02-26T01:14:01.445Z,1026.9
2019-02-26T01:15:02.993Z,1026.93
2019-02-26T01:16:01.417Z,1026.94
2019-02-26T01:17:01.365Z,1026.9
2019-02-26T01:18:03.076Z,1026.91
2019-02-26T01:19:01.327Z,1026.91
2019-02-26T01:20:03.510Z,1026.92
2019-02-26T01:21:02.385Z,1026.9
2019-02-26T01:22:01.265Z,1026.91
2019-02-26T01:23:01.246Z,1026.89
2019-02-26T01:24:01.723Z,1026.84
2019-02-26T01:25:01.207Z,1026.84
2019-02-26T01:26:01.187Z,1026.88
2019-02-26T01:27:01.166Z,1026.86
2019-02-26T01:28:01.299Z,1026.85
2019-02-26T01:29:01.128Z,1026.86
2019-02-26T01:30:03.244Z,1026.84
2019-02-26T01:31:03.055Z,1026.78
2019-02-26T01:32:02.179Z,1026.84
2019-02-26T01:33:03.117Z,1026.84
2019-02-26T01:34:01.032Z,1026.81
2019-02-26T01:35:03.286Z,1026.82
2019-02-26T01:36:02.652Z,1026.79
2019-02-26T01:37:03.031Z,1026.83
2019-02-26T01:38:00.982Z,1026.86
2019-02-26T01:39:00.934Z,1026.86
2019-02-26T01:40:00.913Z,1026.83
2019-02-26T01:41:00.892Z,1026.85
2019-02-26T01:42:00.883Z,1026.87
2019-02-26T01:43:03.028Z,1026.86
2019-02-26T01:44:00.838Z,1026.85
2019-02-26T01:45:00.813Z,1026.85
2019-02-26T01:46:00.794Z,1026.85
2019-02-26T01:47:02.890Z,1026.86
2019-02-26T01:48:00.756Z,1026.85
2019-02-26T01:49:02.082Z,1026.83
2019-02-26T01:50:00.721Z,1026.85
2019-02-26T01:51:01.160Z,1026.85
2019-02-26T01:52:00.676Z,1026.84
2019-02-26T01:53:01.106Z,1026.85
2019-02-26T01:54:00.638Z,1026.86
2019-02-26T01:55:02.715Z,1026.84
2019-02-26T01:56:04.504Z,1026.8
2019-02-26T01:57:00.578Z,1026.83
2019-02-26T01:58:00.557Z,1026.84
2019-02-26T01:59:02.264Z,1026.84
2019-02-26T02:00:00.519Z,1026.79
2019-02-26T02:01:00.498Z,1026.77
2019-02-26T02:02:00.479Z,1026.81
2019-02-26T02:03:00.459Z,1026.75
2019-02-26T02:04:00.440Z,1026.76
2019-02-26T02:05:02.837Z,1026.72
2019-02-26T02:06:00.401Z,1026.75
